createdAt,value
2023-04-09T00:01:27.965Z,412
2023-04-09T00:02:24.681Z,420
2023-04-09T00:03:24.631Z,418
2023-04-09T00:04:24.569Z,408
2023-04-09T00:05:24.879Z,412
2023-04-09T00:06:23.832Z,420
2023-04-09T00:07:24.319Z,423
2023-04-09T00:08:24.383Z,411
2023-04-09T00:09:24.181Z,414
2023-04-09T00:10:24.588Z,419
2023-04-09T00:11:24.738Z,416
2023-04-09T00:12:24.184Z,413
2023-04-09T00:13:31.944Z,410
2023-04-09T00:14:24.173Z,413
2023-04-09T00:15:30.736Z,423
2023-04-09T00:16:23.810Z,428
2023-04-09T00:17:24.164Z,425
2023-04-09T00:18:24.038Z,416
2023-04-09T00:19:24.296Z,418
2023-04-09T00:20:24.283Z,416
2023-04-09T00:21:24.347Z,424
2023-04-09T00:22:24.035Z,418
2023-04-09T00:23:24.400Z,412
2023-04-09T00:24:24.443Z,405
2023-04-09T00:25:24.489Z,414
2023-04-09T00:26:24.456Z,417
2023-04-09T00:27:24.259Z,415
2023-04-09T00:28:24.607Z,418
2023-04-09T00:29:24.191Z,421
2023-04-09T00:30:24.604Z,411
2023-04-09T00:31:23.953Z,407
2023-04-09T00:32:24.250Z,417
2023-04-09T00:33:23.508Z,420
2023-04-09T00:34:24.713Z,422
2023-04-09T00:35:24.298Z,411
2023-04-09T00:36:27.013Z,400
2023-04-09T00:37:24.172Z,402
2023-04-09T00:38:23.924Z,398
2023-04-09T00:39:24.249Z,391
2023-04-09T00:40:24.284Z,404
2023-04-09T00:41:42.946Z,406
2023-04-09T00:42:24.710Z,398
2023-04-09T00:43:24.033Z,410
2023-04-09T00:45:24.252Z,415
2023-04-09T00:46:24.732Z,416
2023-04-09T00:47:24.723Z,402
2023-04-09T00:48:24.175Z,411
2023-04-09T00:49:24.250Z,414
2023-04-09T00:50:24.262Z,405
2023-04-09T00:51:24.798Z,410
2023-04-09T00:52:24.676Z,415
2023-04-09T00:53:23.929Z,407
2023-04-09T00:55:24.050Z,414
2023-04-09T00:56:24.265Z,408
2023-04-09T00:57:24.191Z,409
2023-04-09T00:59:24.450Z,393
2023-04-09T01:00:25.089Z,405
2023-04-09T01:01:24.031Z,414
2023-04-09T01:02:24.628Z,411
2023-04-09T01:03:24.787Z,406
2023-04-09T01:04:24.166Z,398
2023-04-09T01:05:24.477Z,395
2023-04-09T01:07:24.496Z,409
2023-04-09T01:08:25.847Z,411
2023-04-09T01:10:24.180Z,401
2023-04-09T01:11:24.214Z,410
2023-04-09T01:12:24.356Z,423
2023-04-09T01:14:24.728Z,416
2023-04-09T01:15:24.402Z,417
2023-04-09T01:16:24.162Z,424
2023-04-09T01:17:24.628Z,430
2023-04-09T01:18:24.791Z,425
2023-04-09T01:19:24.152Z,426
2023-04-09T01:20:24.281Z,416
2023-04-09T01:21:24.032Z,410
2023-04-09T01:22:24.396Z,423
2023-04-09T01:23:24.927Z,428
2023-04-09T01:24:24.182Z,423
2023-04-09T01:25:24.767Z,419
2023-04-09T01:26:24.351Z,410
2023-04-09T01:27:23.970Z,403
2023-04-09T01:28:24.408Z,407
2023-04-09T01:29:24.117Z,410
2023-04-09T01:30:24.621Z,418
2023-04-09T01:32:24.718Z,412
2023-04-09T01:34:24.364Z,422
2023-04-09T01:35:24.186Z,424
2023-04-09T01:36:24.527Z,422
2023-04-09T01:37:24.554Z,428
2023-04-09T01:38:24.852Z,425
2023-04-09T01:39:24.755Z,417
2023-04-09T01:40:25.296Z,416
2023-04-09T01:41:24.263Z,423
2023-04-09T01:42:24.685Z,421
2023-04-09T01:43:24.506Z,411
2023-04-09T01:45:24.830Z,420
2023-04-09T01:46:24.543Z,421
2023-04-09T01:47:24.243Z,413
2023-04-09T01:48:24.452Z,414
2023-04-09T01:49:23.907Z,411
2023-04-09T01:50:24.084Z,418
2023-04-09T01:52:24.304Z,419
2023-04-09T01:53:24.201Z,418
2023-04-09T01:54:23.808Z,415
2023-04-09T01:55:24.261Z,420
2023-04-09T01:56:25.117Z,431
2023-04-09T01:57:23.864Z,433
2023-04-09T01:58:24.131Z,425
2023-04-09T01:59:24.758Z,423
2023-04-09T02:00:25.822Z,426
2023-04-09T02:02:23.899Z,422
2023-04-09T02:03:24.129Z,436
2023-04-09T02:04:23.591Z,434
2023-04-09T02:05:24.178Z,427
2023-04-09T02:06:24.497Z,421
2023-04-09T02:07:24.527Z,412
2023-04-09T02:08:24.164Z,410
2023-04-09T02:09:25.066Z,418
2023-04-09T02:10:24.002Z,412
2023-04-09T02:11:23.557Z,410
2023-04-09T02:12:24.317Z,415
2023-04-09T02:13:24.155Z,423
2023-04-09T02:14:24.295Z,425
2023-04-09T02:15:24.884Z,416
2023-04-09T02:16:23.576Z,420
2023-04-09T02:17:23.863Z,419
2023-04-09T02:18:24.531Z,415
2023-04-09T02:19:24.337Z,417
2023-04-09T02:20:24.834Z,415
2023-04-09T02:21:24.743Z,418
2023-04-09T02:23:24.720Z,419
2023-04-09T02:24:24.477Z,426
2023-04-09T02:25:24.523Z,420
2023-04-09T02:26:24.195Z,418
2023-04-09T02:27:24.162Z,421
2023-04-09T02:29:23.855Z,427
2023-04-09T02:30:24.959Z,430
2023-04-09T02:31:24.086Z,424
2023-04-09T02:32:24.220Z,428
2023-04-09T02:33:24.194Z,419
2023-04-09T02:34:24.337Z,421
2023-04-09T02:35:23.863Z,428
2023-04-09T02:36:29.508Z,415
2023-04-09T02:37:23.989Z,423
2023-04-09T02:39:24.547Z,422
2023-04-09T02:40:25.084Z,425
2023-04-09T02:41:24.609Z,439
2023-04-09T02:43:24.117Z,431
2023-04-09T02:44:32.036Z,437
2023-04-09T02:45:24.648Z,431
2023-04-09T02:46:24.960Z,432
2023-04-09T02:47:24.132Z,438
2023-04-09T02:48:24.015Z,446
2023-04-09T02:50:24.466Z,433
2023-04-09T02:51:23.851Z,428
2023-04-09T02:52:24.368Z,426
2023-04-09T02:54:24.155Z,428
2023-04-09T02:55:24.530Z,425
2023-04-09T02:56:24.654Z,428
2023-04-09T02:57:24.497Z,423
2023-04-09T02:58:24.526Z,432
2023-04-09T02:59:23.947Z,423
2023-04-09T03:00:39.970Z,417
2023-04-09T03:01:25.289Z,430
2023-04-09T03:02:25.341Z,438
2023-04-09T03:03:24.756Z,432
2023-04-09T03:04:43.182Z,419
2023-04-09T03:05:25.880Z,407
2023-04-09T03:06:24.236Z,415
2023-04-09T03:08:24.613Z,407
2023-04-09T03:10:43.776Z,418
2023-04-09T03:11:24.497Z,426
2023-04-09T03:12:46.035Z,421
2023-04-09T03:13:24.182Z,419
2023-04-09T03:14:24.184Z,418
2023-04-09T03:15:24.474Z,421
2023-04-09T03:16:24.488Z,422
2023-04-09T03:18:24.877Z,421
2023-04-09T03:20:24.397Z,420
2023-04-09T03:22:23.761Z,417
2023-04-09T03:23:24.434Z,427
2023-04-09T03:24:24.294Z,420
2023-04-09T03:25:24.391Z,419
2023-04-09T03:26:24.717Z,417
2023-04-09T03:27:24.645Z,410
2023-04-09T03:28:24.002Z,417
2023-04-09T03:29:24.307Z,418
2023-04-09T03:30:24.937Z,410
2023-04-09T03:32:24.360Z,420
2023-04-09T03:34:24.929Z,428
2023-04-09T03:35:24.795Z,413
2023-04-09T03:37:24.670Z,420
2023-04-09T03:39:24.945Z,415
2023-04-09T03:41:24.176Z,428
2023-04-09T03:42:24.117Z,435
2023-04-09T03:43:23.690Z,441
2023-04-09T03:44:24.619Z,442
2023-04-09T03:45:24.281Z,440
2023-04-09T03:46:24.335Z,434
2023-04-09T03:47:24.270Z,432
2023-04-09T03:48:23.967Z,424
2023-04-09T03:51:24.054Z,422
2023-04-09T03:52:23.891Z,431
2023-04-09T03:54:24.007Z,432
2023-04-09T03:56:24.583Z,430
2023-04-09T03:57:24.913Z,433
2023-04-09T03:58:23.949Z,427
2023-04-09T03:59:24.668Z,426
2023-04-09T04:00:25.446Z,430
2023-04-09T04:01:24.811Z,429
2023-04-09T04:02:24.415Z,433
2023-04-09T04:03:25.622Z,441
2023-04-09T04:05:25.071Z,433
2023-04-09T04:06:23.833Z,447
2023-04-09T04:07:24.870Z,440
2023-04-09T04:08:24.757Z,430
2023-04-09T04:09:24.481Z,422
2023-04-09T04:10:25.252Z,431
2023-04-09T04:11:24.149Z,426
2023-04-09T04:12:24.047Z,434
2023-04-09T04:13:24.523Z,429
2023-04-09T04:14:24.788Z,436
2023-04-09T04:15:24.805Z,435
2023-04-09T04:16:24.096Z,437
2023-04-09T04:17:24.109Z,435
2023-04-09T04:18:24.159Z,434
2023-04-09T04:19:24.513Z,446
2023-04-09T04:20:24.466Z,443
2023-04-09T04:21:24.215Z,445
2023-04-09T04:24:24.616Z,440
2023-04-09T04:25:26.103Z,444
2023-04-09T04:26:25.150Z,442
2023-04-09T04:27:26.309Z,441
2023-04-09T04:28:24.610Z,444
2023-04-09T04:29:24.429Z,431
2023-04-09T04:30:24.101Z,436
2023-04-09T04:31:23.970Z,449
2023-04-09T04:32:24.573Z,443
2023-04-09T04:33:24.314Z,445
2023-04-09T04:35:24.959Z,454
2023-04-09T04:36:24.356Z,457
2023-04-09T04:37:24.089Z,467
2023-04-09T04:38:24.554Z,464
2023-04-09T04:39:24.164Z,462
2023-04-09T04:40:24.592Z,461
2023-04-09T04:41:23.383Z,467
2023-04-09T04:42:24.917Z,462
2023-04-09T04:43:24.754Z,460
2023-04-09T04:44:24.827Z,462
2023-04-09T04:45:25.958Z,468
2023-04-09T04:46:24.350Z,473
2023-04-09T04:47:24.779Z,470
2023-04-09T04:49:25.475Z,483
2023-04-09T04:50:24.073Z,486
2023-04-09T04:51:24.721Z,482
2023-04-09T04:52:24.260Z,469
2023-04-09T04:53:24.259Z,473
2023-04-09T04:54:24.144Z,470
2023-04-09T04:55:24.173Z,473
2023-04-09T04:56:24.120Z,477
2023-04-09T04:57:24.428Z,465
2023-04-09T04:58:24.723Z,467
2023-04-09T04:59:24.506Z,469
2023-04-09T05:00:25.233Z,470
2023-04-09T05:01:24.142Z,474
2023-04-09T05:02:24.654Z,466
2023-04-09T05:03:26.132Z,463
2023-04-09T05:04:24.890Z,464
2023-04-09T05:05:24.438Z,458
2023-04-09T05:06:24.864Z,455
2023-04-09T05:07:24.366Z,461
2023-04-09T05:08:24.720Z,473
2023-04-09T05:09:24.943Z,488
2023-04-09T05:10:24.504Z,492
2023-04-09T05:11:32.748Z,497
2023-04-09T05:12:24.808Z,494
2023-04-09T05:13:39.056Z,483
2023-04-09T05:15:38.114Z,473
2023-04-09T05:16:24.448Z,469
2023-04-09T05:19:24.649Z,469
2023-04-09T05:20:24.493Z,474
2023-04-09T05:21:24.294Z,476
2023-04-09T05:22:24.653Z,469
2023-04-09T05:23:24.398Z,471
2023-04-09T05:24:25.073Z,468
2023-04-09T05:25:24.278Z,462
2023-04-09T05:26:24.932Z,467
2023-04-09T05:27:24.468Z,470
2023-04-09T05:28:24.353Z,461
2023-04-09T05:29:24.848Z,459
2023-04-09T05:30:25.238Z,465
2023-04-09T05:32:24.163Z,467
2023-04-09T05:33:24.268Z,460
2023-04-09T05:34:23.877Z,450
2023-04-09T05:35:23.946Z,452
2023-04-09T05:36:24.236Z,467
2023-04-09T05:37:24.541Z,473
2023-04-09T05:38:24.883Z,478
2023-04-09T05:39:24.486Z,473
2023-04-09T05:40:24.847Z,463
2023-04-09T05:41:24.089Z,464
2023-04-09T05:42:24.219Z,457
2023-04-09T05:43:24.356Z,444
2023-04-09T05:44:24.046Z,445
2023-04-09T05:45:24.631Z,449
2023-04-09T05:46:24.302Z,459
2023-04-09T05:47:24.556Z,460
2023-04-09T05:48:24.478Z,462
2023-04-09T05:49:24.391Z,467
2023-04-09T05:50:24.306Z,451
2023-04-09T05:51:24.746Z,449
2023-04-09T05:52:24.539Z,448
2023-04-09T05:53:26.564Z,450
2023-04-09T05:54:25.387Z,455
2023-04-09T05:55:25.041Z,466
2023-04-09T05:56:24.208Z,464
2023-04-09T05:57:24.774Z,466
2023-04-09T05:58:24.756Z,464
2023-04-09T05:59:24.996Z,461
2023-04-09T06:00:25.830Z,451
2023-04-09T06:01:24.729Z,461
2023-04-09T06:02:24.647Z,460
2023-04-09T06:03:24.219Z,462
2023-04-09T06:04:24.845Z,466
2023-04-09T06:05:24.785Z,460
2023-04-09T06:07:24.647Z,463
2023-04-09T06:09:24.689Z,461
2023-04-09T06:10:24.240Z,454
2023-04-09T06:11:24.353Z,450
2023-04-09T06:14:25.055Z,459
2023-04-09T06:15:24.490Z,469
2023-04-09T06:17:24.923Z,465
2023-04-09T06:18:24.782Z,459
2023-04-09T06:19:24.518Z,457
2023-04-09T06:20:24.959Z,461
2023-04-09T06:21:24.715Z,453
2023-04-09T06:22:24.515Z,460
2023-04-09T06:23:24.267Z,462
2023-04-09T06:24:24.963Z,468
2023-04-09T06:25:24.760Z,460
2023-04-09T06:26:24.553Z,456
2023-04-09T06:27:24.784Z,457
2023-04-09T06:28:24.291Z,454
2023-04-09T06:29:24.639Z,460
2023-04-09T06:30:25.285Z,462
2023-04-09T06:31:24.061Z,466
2023-04-09T06:32:25.092Z,460
2023-04-09T06:33:24.249Z,461
2023-04-09T06:34:24.116Z,472
2023-04-09T06:35:24.149Z,470
2023-04-09T06:36:25.376Z,468
2023-04-09T06:37:24.915Z,460
2023-04-09T06:38:24.799Z,453
2023-04-09T06:39:25.006Z,458
2023-04-09T06:40:25.440Z,459
2023-04-09T06:41:24.706Z,466
2023-04-09T06:43:24.134Z,457
2023-04-09T06:44:24.536Z,458
2023-04-09T06:45:24.816Z,449
2023-04-09T06:46:24.970Z,448
2023-04-09T06:47:24.845Z,440
2023-04-09T06:48:24.344Z,430
2023-04-09T06:49:24.640Z,433
2023-04-09T06:50:24.883Z,427
2023-04-09T06:51:24.625Z,438
2023-04-09T06:52:24.712Z,437
2023-04-09T06:53:24.648Z,429
2023-04-09T06:54:25.010Z,422
2023-04-09T06:55:24.440Z,428
2023-04-09T06:56:24.799Z,416
2023-04-09T06:57:25.049Z,415
2023-04-09T06:58:24.280Z,420
2023-04-09T06:59:24.360Z,411
2023-04-09T07:00:25.673Z,419
2023-04-09T07:01:25.109Z,421
2023-04-09T07:02:25.399Z,412
2023-04-09T07:03:24.818Z,414
2023-04-09T07:04:24.251Z,418
2023-04-09T07:05:24.884Z,416
2023-04-09T07:07:25.958Z,406
2023-04-09T07:08:24.478Z,401
2023-04-09T07:09:25.448Z,404
2023-04-09T07:12:25.169Z,401
2023-04-09T07:13:23.229Z,405
2023-04-09T07:14:24.884Z,404
2023-04-09T07:15:24.346Z,400
2023-04-09T07:17:24.504Z,398
2023-04-09T07:18:24.443Z,392
2023-04-09T07:19:24.583Z,397
2023-04-09T07:20:29.715Z,392
2023-04-09T07:21:25.896Z,391
2023-04-09T07:22:24.626Z,397
2023-04-09T07:23:24.669Z,396
2023-04-09T07:24:24.431Z,393
2023-04-09T07:25:25.374Z,400
2023-04-09T07:26:24.668Z,389
2023-04-09T07:27:24.618Z,393
2023-04-09T07:28:24.108Z,398
2023-04-09T07:29:25.746Z,397
2023-04-09T07:30:29.873Z,392
2023-04-09T07:31:24.287Z,396
2023-04-09T07:32:24.497Z,405
2023-04-09T07:33:24.550Z,400
2023-04-09T07:34:24.425Z,402
2023-04-09T07:35:24.729Z,405
2023-04-09T07:37:24.940Z,411
2023-04-09T07:38:24.440Z,409
2023-04-09T07:39:25.220Z,401
2023-04-09T07:40:24.172Z,394
2023-04-09T07:41:24.554Z,391
2023-04-09T07:43:24.742Z,395
2023-04-09T07:44:24.671Z,403
2023-04-09T07:45:25.175Z,402
2023-04-09T07:46:24.628Z,395
2023-04-09T07:47:24.339Z,392
2023-04-09T07:48:24.361Z,405
2023-04-09T07:49:24.445Z,407
2023-04-09T07:50:25.356Z,397
2023-04-09T07:51:24.613Z,392
2023-04-09T07:52:24.341Z,389
2023-04-09T07:53:24.179Z,391
2023-04-09T07:54:24.382Z,403
2023-04-09T07:55:24.603Z,392
2023-04-09T07:56:24.461Z,377
2023-04-09T07:57:24.605Z,388
2023-04-09T07:58:24.730Z,391
2023-04-09T07:59:24.467Z,396
2023-04-09T08:00:25.935Z,405
2023-04-09T08:01:24.474Z,384
2023-04-09T08:02:24.640Z,381
2023-04-09T08:03:24.338Z,378
2023-04-09T08:04:23.786Z,379
2023-04-09T08:05:24.590Z,385
2023-04-09T08:06:24.131Z,384
2023-04-09T08:07:24.094Z,386
2023-04-09T08:09:24.025Z,372
2023-04-09T08:10:24.897Z,360
2023-04-09T08:11:25.164Z,366
2023-04-09T08:12:24.829Z,361
2023-04-09T08:13:23.963Z,370
2023-04-09T08:15:25.310Z,368
2023-04-09T08:16:24.669Z,359
2023-04-09T08:17:24.277Z,364
2023-04-09T08:18:24.298Z,382
2023-04-09T08:19:24.118Z,385
2023-04-09T08:20:24.599Z,376
2023-04-09T08:21:24.313Z,389
2023-04-09T08:22:24.784Z,378
2023-04-09T08:23:25.532Z,382
2023-04-09T08:24:24.712Z,374
2023-04-09T08:25:24.507Z,366
2023-04-09T08:26:23.695Z,369
2023-04-09T08:27:24.933Z,368
2023-04-09T08:28:24.439Z,357
2023-04-09T08:29:24.610Z,370
2023-04-09T08:30:24.746Z,358
2023-04-09T08:32:24.221Z,362
2023-04-09T08:33:24.547Z,351
2023-04-09T08:34:24.428Z,349
2023-04-09T08:35:24.349Z,358
2023-04-09T08:36:24.241Z,362
2023-04-09T08:37:24.112Z,360
2023-04-09T08:38:24.129Z,357
2023-04-09T08:39:24.584Z,354
2023-04-09T08:40:24.546Z,364
2023-04-09T08:41:24.464Z,362
2023-04-09T08:42:24.009Z,368
2023-04-09T08:43:27.017Z,370
2023-04-09T08:44:25.173Z,366
2023-04-09T08:45:25.666Z,364
2023-04-09T08:46:24.323Z,358
2023-04-09T08:47:25.330Z,369
2023-04-09T08:48:24.790Z,373
2023-04-09T08:49:24.078Z,365
2023-04-09T08:50:24.101Z,366
2023-04-09T08:51:24.299Z,368
2023-04-09T08:52:24.331Z,366
2023-04-09T08:53:23.976Z,367
2023-04-09T08:54:24.533Z,372
2023-04-09T08:55:24.921Z,380
2023-04-09T08:56:24.475Z,385
2023-04-09T08:57:24.064Z,381
2023-04-09T08:58:24.401Z,366
2023-04-09T08:59:24.419Z,370
2023-04-09T09:00:25.758Z,368
2023-04-09T09:01:24.041Z,361
2023-04-09T09:03:23.914Z,370
2023-04-09T09:04:24.200Z,360
2023-04-09T09:05:24.360Z,363
2023-04-09T09:06:24.856Z,368
2023-04-09T09:07:25.243Z,367
2023-04-09T09:08:24.061Z,358
2023-04-09T09:09:24.447Z,361
2023-04-09T09:10:24.603Z,360
2023-04-09T09:11:24.366Z,366
2023-04-09T09:12:24.975Z,371
2023-04-09T09:13:24.720Z,364
2023-04-09T09:14:23.867Z,372
2023-04-09T09:15:23.983Z,370
2023-04-09T09:16:24.628Z,365
2023-04-09T09:17:25.087Z,362
2023-04-09T09:18:25.007Z,356
2023-04-09T09:19:25.084Z,350
2023-04-09T09:20:24.727Z,344
2023-04-09T09:21:24.844Z,350
2023-04-09T09:22:24.647Z,352
2023-04-09T09:23:24.496Z,353
2023-04-09T09:24:23.854Z,357
2023-04-09T09:25:24.332Z,354
2023-04-09T09:26:24.615Z,364
2023-04-09T09:27:24.722Z,365
2023-04-09T09:28:24.626Z,357
2023-04-09T09:29:24.284Z,352
2023-04-09T09:30:24.878Z,353
2023-04-09T09:31:24.166Z,361
2023-04-09T09:32:24.458Z,364
2023-04-09T09:33:24.083Z,360
2023-04-09T09:34:24.460Z,355
2023-04-09T09:35:25.069Z,350
2023-04-09T09:36:24.459Z,349
2023-04-09T09:37:24.537Z,352
2023-04-09T09:38:25.089Z,348
2023-04-09T09:39:24.792Z,349
2023-04-09T09:40:25.497Z,355
2023-04-09T09:41:24.832Z,351
2023-04-09T09:42:24.624Z,350
2023-04-09T09:43:24.468Z,355
2023-04-09T09:44:23.994Z,354
2023-04-09T09:45:24.959Z,349
2023-04-09T09:46:24.596Z,364
2023-04-09T09:47:24.264Z,371
2023-04-09T09:48:27.098Z,365
2023-04-09T09:49:24.737Z,359
2023-04-09T09:50:24.234Z,358
2023-04-09T09:51:29.305Z,364
2023-04-09T09:52:23.804Z,366
2023-04-09T09:53:23.816Z,356
2023-04-09T09:54:24.987Z,355
2023-04-09T09:55:24.326Z,358
2023-04-09T09:56:24.671Z,351
2023-04-09T09:57:24.866Z,346
2023-04-09T09:58:24.368Z,353
2023-04-09T09:59:24.802Z,356
2023-04-09T10:00:25.931Z,362
2023-04-09T10:01:32.904Z,358
2023-04-09T10:02:24.889Z,363
2023-04-09T10:03:25.598Z,358
2023-04-09T10:04:24.057Z,352
2023-04-09T10:05:38.287Z,355
2023-04-09T10:07:24.542Z,356
2023-04-09T10:08:24.729Z,362
2023-04-09T10:09:24.344Z,367
2023-04-09T10:11:24.241Z,361
2023-04-09T10:12:23.939Z,360
2023-04-09T10:13:23.833Z,354
2023-04-09T10:14:24.300Z,356
2023-04-09T10:15:24.868Z,357
2023-04-09T10:17:24.062Z,360
2023-04-09T10:18:24.298Z,357
2023-04-09T10:20:24.420Z,362
2023-04-09T10:22:24.040Z,360
2023-04-09T10:23:23.764Z,350
2023-04-09T10:24:24.111Z,358
2023-04-09T10:26:24.842Z,346
2023-04-09T10:27:25.072Z,348
2023-04-09T10:28:23.444Z,342
2023-04-09T10:29:24.547Z,351
2023-04-09T10:30:25.268Z,353
2023-04-09T10:31:24.298Z,346
2023-04-09T10:32:24.570Z,348
2023-04-09T10:33:24.384Z,350
2023-04-09T10:34:24.091Z,348
2023-04-09T10:35:23.788Z,351
2023-04-09T10:36:25.149Z,355
2023-04-09T10:37:24.530Z,348
2023-04-09T10:38:24.445Z,353
2023-04-09T10:39:24.548Z,348
2023-04-09T10:40:25.116Z,353
2023-04-09T10:42:25.154Z,345
2023-04-09T10:43:25.613Z,334
2023-04-09T10:44:24.530Z,335
2023-04-09T10:45:25.122Z,352
2023-04-09T10:46:24.861Z,362
2023-04-09T10:47:24.721Z,360
2023-04-09T10:48:24.709Z,362
2023-04-09T10:49:24.612Z,348
2023-04-09T10:50:25.734Z,351
2023-04-09T10:52:25.314Z,347
2023-04-09T10:53:24.974Z,363
2023-04-09T10:54:25.122Z,361
2023-04-09T10:55:24.183Z,344
2023-04-09T10:56:24.640Z,345
2023-04-09T10:57:24.094Z,346
2023-04-09T10:58:24.142Z,347
2023-04-09T10:59:23.431Z,348
2023-04-09T11:00:25.820Z,354
2023-04-09T11:01:23.880Z,349
2023-04-09T11:02:24.783Z,347
2023-04-09T11:03:25.100Z,348
2023-04-09T11:04:24.937Z,359
2023-04-09T11:05:24.814Z,350
2023-04-09T11:06:23.818Z,353
2023-04-09T11:07:25.281Z,347
2023-04-09T11:08:24.846Z,346
2023-04-09T11:09:23.998Z,362
2023-04-09T11:10:24.578Z,361
2023-04-09T11:11:24.498Z,366
2023-04-09T11:12:24.230Z,350
2023-04-09T11:13:24.572Z,347
2023-04-09T11:14:24.610Z,356
2023-04-09T11:15:24.637Z,358
2023-04-09T11:16:27.900Z,357
2023-04-09T11:17:24.552Z,365
2023-04-09T11:18:24.872Z,358
2023-04-09T11:20:24.792Z,359
2023-04-09T11:21:24.404Z,364
2023-04-09T11:22:25.503Z,353
2023-04-09T11:23:24.907Z,352
2023-04-09T11:24:24.355Z,362
2023-04-09T11:25:24.605Z,351
2023-04-09T11:26:24.395Z,350
2023-04-09T11:27:24.559Z,358
2023-04-09T11:28:24.252Z,351
2023-04-09T11:29:24.359Z,350
2023-04-09T11:30:24.601Z,362
2023-04-09T11:31:24.174Z,368
2023-04-09T11:32:24.405Z,365
2023-04-09T11:33:24.049Z,367
2023-04-09T11:34:23.883Z,363
2023-04-09T11:35:24.514Z,344
2023-04-09T11:36:25.266Z,345
2023-04-09T11:37:25.456Z,349
2023-04-09T11:38:24.702Z,353
2023-04-09T11:39:25.061Z,347
2023-04-09T11:41:24.072Z,348
2023-04-09T11:42:24.118Z,354
2023-04-09T11:43:24.539Z,370
2023-04-09T11:44:24.230Z,368
2023-04-09T11:45:24.577Z,353
2023-04-09T11:46:24.349Z,352
2023-04-09T11:47:24.641Z,348
2023-04-09T11:48:24.175Z,352
2023-04-09T11:49:24.632Z,354
2023-04-09T11:50:24.694Z,363
2023-04-09T11:51:24.368Z,353
2023-04-09T11:52:24.780Z,351
2023-04-09T11:53:24.089Z,349
2023-04-09T11:54:24.854Z,335
2023-04-09T11:55:24.472Z,348
2023-04-09T11:56:24.360Z,353
2023-04-09T11:57:24.243Z,351
2023-04-09T11:58:24.072Z,349
2023-04-09T11:59:24.995Z,347
2023-04-09T12:00:25.391Z,348
2023-04-09T12:01:24.164Z,341
2023-04-09T12:02:24.723Z,340
2023-04-09T12:03:25.169Z,344
2023-04-09T12:04:24.541Z,340
2023-04-09T12:05:24.910Z,348
2023-04-09T12:06:24.252Z,346
2023-04-09T12:07:25.152Z,344
2023-04-09T12:08:25.180Z,352
2023-04-09T12:09:25.011Z,346
2023-04-09T12:10:25.508Z,349
2023-04-09T12:11:24.613Z,342
2023-04-09T12:12:24.317Z,344
2023-04-09T12:13:24.470Z,354
2023-04-09T12:14:24.604Z,347
2023-04-09T12:15:24.876Z,345
2023-04-09T12:16:24.869Z,343
2023-04-09T12:17:24.902Z,341
2023-04-09T12:18:24.470Z,339
2023-04-09T12:19:24.732Z,345
2023-04-09T12:20:24.939Z,337
2023-04-09T12:21:24.018Z,340
2023-04-09T12:22:23.793Z,328
2023-04-09T12:23:24.765Z,346
2023-04-09T12:24:24.552Z,349
2023-04-09T12:25:25.034Z,348
2023-04-09T12:27:24.641Z,346
2023-04-09T12:28:24.692Z,359
2023-04-09T12:29:24.533Z,348
2023-04-09T12:30:24.822Z,351
2023-04-09T12:31:23.286Z,346
2023-04-09T12:32:24.437Z,347
2023-04-09T12:33:24.400Z,340
2023-04-09T12:34:24.378Z,339
2023-04-09T12:35:24.163Z,344
2023-04-09T12:36:24.451Z,340
2023-04-09T12:37:24.077Z,343
2023-04-09T12:38:24.064Z,338
2023-04-09T12:39:24.685Z,342
2023-04-09T12:40:24.786Z,346
2023-04-09T12:41:25.176Z,344
2023-04-09T12:42:24.778Z,348
2023-04-09T12:43:24.471Z,345
2023-04-09T12:44:24.484Z,340
2023-04-09T12:45:24.350Z,335
2023-04-09T12:46:24.543Z,348
2023-04-09T12:47:25.520Z,355
2023-04-09T12:48:24.742Z,343
2023-04-09T12:49:25.242Z,337
2023-04-09T12:50:26.056Z,342
2023-04-09T12:51:26.014Z,351
2023-04-09T12:52:26.141Z,356
2023-04-09T12:53:25.855Z,354
2023-04-09T12:54:45.455Z,346
2023-04-09T12:55:24.490Z,349
2023-04-09T12:56:24.554Z,344
2023-04-09T12:57:24.344Z,337
2023-04-09T12:58:25.231Z,335
2023-04-09T12:59:24.315Z,332
2023-04-09T13:00:25.340Z,328
2023-04-09T13:01:24.193Z,327
2023-04-09T13:02:24.837Z,335
2023-04-09T13:03:24.696Z,340
2023-04-09T13:05:29.349Z,336
2023-04-09T13:07:24.465Z,341
2023-04-09T13:08:24.189Z,343
2023-04-09T13:09:24.528Z,345
2023-04-09T13:10:24.696Z,351
2023-04-09T13:11:24.737Z,355
2023-04-09T13:12:24.993Z,346
2023-04-09T13:13:24.457Z,350
2023-04-09T13:14:24.297Z,341
2023-04-09T13:15:25.172Z,338
2023-04-09T13:16:24.207Z,341
2023-04-09T13:17:24.147Z,344
2023-04-09T13:18:24.107Z,339
2023-04-09T13:19:24.473Z,330
2023-04-09T13:20:24.270Z,343
2023-04-09T13:21:23.645Z,339
2023-04-09T13:22:24.011Z,345
2023-04-09T13:23:23.804Z,349
2023-04-09T13:24:25.005Z,351
2023-04-09T13:25:24.005Z,346
2023-04-09T13:26:24.069Z,351
2023-04-09T13:27:24.979Z,340
2023-04-09T13:28:23.982Z,341
2023-04-09T13:29:23.526Z,347
2023-04-09T13:30:24.443Z,345
2023-04-09T13:31:24.076Z,343
2023-04-09T13:32:23.677Z,341
2023-04-09T13:33:24.226Z,338
2023-04-09T13:35:29.588Z,344
2023-04-09T13:36:24.783Z,341
2023-04-09T13:37:24.817Z,334
2023-04-09T13:38:24.410Z,340
2023-04-09T13:39:23.931Z,342
2023-04-09T13:40:24.459Z,341
2023-04-09T13:41:24.428Z,340
2023-04-09T13:42:24.836Z,345
2023-04-09T13:43:24.648Z,344
2023-04-09T13:44:24.276Z,350
2023-04-09T13:45:24.432Z,344
2023-04-09T13:47:24.244Z,346
2023-04-09T13:48:24.327Z,351
2023-04-09T13:49:24.465Z,357
2023-04-09T13:50:24.785Z,356
2023-04-09T13:51:23.832Z,354
2023-04-09T13:52:23.405Z,356
2023-04-09T13:53:24.744Z,350
2023-04-09T13:54:24.261Z,348
2023-04-09T13:55:24.270Z,356
2023-04-09T13:56:24.457Z,364
2023-04-09T13:57:24.513Z,356
2023-04-09T13:59:24.219Z,348
2023-04-09T14:00:25.311Z,329
2023-04-09T14:01:24.632Z,334
2023-04-09T14:02:24.151Z,337
2023-04-09T14:03:24.940Z,339
2023-04-09T14:04:24.314Z,347
2023-04-09T14:05:24.352Z,342
2023-04-09T14:06:24.087Z,343
2023-04-09T14:07:24.542Z,342
2023-04-09T14:08:24.592Z,344
2023-04-09T14:09:24.649Z,336
2023-04-09T14:10:24.522Z,333
2023-04-09T14:11:23.935Z,340
2023-04-09T14:12:24.059Z,349
2023-04-09T14:13:24.415Z,351
2023-04-09T14:14:24.266Z,356
2023-04-09T14:15:24.146Z,350
2023-04-09T14:16:24.076Z,347
2023-04-09T14:17:23.438Z,342
2023-04-09T14:18:24.105Z,352
2023-04-09T14:19:24.586Z,348
2023-04-09T14:21:24.505Z,343
2023-04-09T14:22:24.441Z,336
2023-04-09T14:23:24.593Z,333
2023-04-09T14:24:24.376Z,337
2023-04-09T14:25:24.528Z,334
2023-04-09T14:26:24.473Z,333
2023-04-09T14:27:24.772Z,331
2023-04-09T14:28:25.071Z,325
2023-04-09T14:29:24.593Z,337
2023-04-09T14:31:24.834Z,348
2023-04-09T14:32:24.095Z,342
2023-04-09T14:33:24.752Z,327
2023-04-09T14:34:25.102Z,319
2023-04-09T14:35:24.939Z,332
2023-04-09T14:36:24.348Z,340
2023-04-09T14:37:24.770Z,347
2023-04-09T14:38:24.510Z,339
2023-04-09T14:39:24.917Z,336
2023-04-09T14:40:24.192Z,344
2023-04-09T14:43:24.982Z,349
2023-04-09T14:44:25.134Z,345
2023-04-09T14:45:24.408Z,336
2023-04-09T14:46:24.566Z,340
2023-04-09T14:47:24.244Z,345
2023-04-09T14:48:24.407Z,346
2023-04-09T14:49:24.521Z,349
2023-04-09T14:50:24.962Z,336
2023-04-09T14:51:24.652Z,340
2023-04-09T14:52:25.948Z,347
2023-04-09T14:53:26.075Z,351
2023-04-09T14:54:26.567Z,343
2023-04-09T14:55:25.421Z,352
2023-04-09T14:56:25.402Z,341
2023-04-09T14:57:24.100Z,332
2023-04-09T14:58:24.440Z,335
2023-04-09T15:00:25.645Z,334
2023-04-09T15:01:24.074Z,338
2023-04-09T15:02:24.499Z,341
2023-04-09T15:03:24.325Z,351
2023-04-09T15:04:24.848Z,356